Time;durP1;ratioP1;P1;durP2;ratioP2;P2;SDS_P1;SDS_P2;PMS_P1;PMS_P2;Temp;Humidity;BMP_temperature;BMP_pressure;BME280_temperature;BME280_humidity;BME280_pressure;Samples;Min_cycle;Max_cycle;Signal;HPM_P1;HPM_P2
2021/09/17 10:26:17;;;;;;;8.73;3.85;;;19.80;99.90;;;;;;12006179;27;20403;-63
2021/09/17 10:32:06;;;;;;;7.63;4.38;;;20.20;99.90;;;;;;11971907;28;20139;-64
2021/09/17 10:42:10;;;;;;;8.75;4.32;;;20.60;99.90;;;;;;12017405;27;20418;-63
2021/09/17 10:47:58;;;;;;;10.90;4.47;;;20.60;99.90;;;;;;11984072;28;20051;-63
2021/09/17 10:54:10;;;;;;;8.98;3.88;;;20.90;99.90;;;;;;12018611;28;22084;-63
2021/09/17 10:59:59;;;;;;;4.38;3.42;;;21.10;99.90;;;;;;12015438;28;20044;-63
2021/09/17 11:05:46;;;;;;;6.00;3.08;;;21.30;99.90;;;;;;12016372;28;20041;-63
2021/09/17 11:11:38;;;;;;;6.18;3.17;;;21.40;99.90;;;;;;12016091;28;20132;-63
2021/09/17 11:17:37;;;;;;;5.55;3.72;;;21.70;99.90;;;;;;12013677;28;20052;-64
2021/09/17 11:23:37;;;;;;;5.63;3.40;;;21.70;99.90;;;;;;12013063;28;20120;-63
2021/09/17 11:29:25;;;;;;;7.95;3.63;;;21.80;99.90;;;;;;12018647;28;20310;-64
2021/09/17 11:35:14;;;;;;;7.00;3.58;;;22.10;99.90;;;;;;12012465;28;20554;-64
2021/09/17 11:41:02;;;;;;;7.70;4.43;;;22.20;99.90;;;;;;11979881;28;20056;-64
2021/09/17 11:46:55;;;;;;;5.43;2.95;;;22.20;99.90;;;;;;11970870;28;20140;-64
2021/09/17 11:52:46;;;;;;;4.65;2.90;;;22.20;99.90;;;;;;11979461;28;20046;-64
2021/09/17 11:58:41;;;;;;;5.63;2.88;;;22.40;99.90;;;;;;11992927;28;20083;-64
2021/09/17 12:04:29;;;;;;;3.65;2.60;;;22.60;99.90;;;;;;12004721;28;20595;-68
2021/09/17 12:16:34;;;;;;;4.38;2.83;;;23.20;97.20;;;;;;11937320;28;20060;-68
2021/09/17 12:35:33;;;;;;;2.90;2.60;;;23.40;94.50;;;;;;11926725;28;20064;-67
2021/09/17 12:41:22;;;;;;;3.30;2.50;;;23.70;94.60;;;;;;11914884;28;20052;-68
2021/09/17 12:47:26;;;;;;;5.15;2.78;;;23.70;92.70;;;;;;11952807;28;20542;-68
2021/09/17 12:53:16;;;;;;;4.75;3.00;;;23.70;92.30;;;;;;11967888;28;20476;-68
2021/09/17 12:59:25;;;;;;;6.50;4.60;;;24.00;92.50;;;;;;11957348;28;20075;-68
2021/09/17 13:05:25;;;;;;;4.72;2.70;;;24.20;91.80;;;;;;11944737;28;20049;-68
2021/09/17 13:11:12;;;;;;;2.80;2.42;;;24.40;91.50;;;;;;11949860;28;21122;-68
2021/09/17 13:16:59;;;;;;;5.18;2.92;;;24.70;89.70;;;;;;11955843;28;20642;-68
2021/09/17 13:22:51;;;;;;;2.85;2.55;;;24.90;88.60;;;;;;11968939;28;20152;-69
2021/09/17 13:28:38;;;;;;;6.17;2.70;;;24.90;90.00;;;;;;11946960;28;20129;-69
2021/09/17 13:34:25;;;;;;;5.35;2.60;;;24.80;89.90;;;;;;11975340;28;20083;-69
2021/09/17 13:40:37;;;;;;;4.78;2.72;;;24.70;91.10;;;;;;11944064;28;20073;-68
2021/09/17 13:46:24;;;;;;;3.95;2.50;;;24.80;90.10;;;;;;11922796;28;20062;-68
2021/09/17 13:52:13;;;;;;;4.03;2.65;;;24.90;89.80;;;;;;11908285;28;20095;-68
2021/09/17 13:58:04;;;;;;;3.47;2.42;;;24.80;89.00;;;;;;11956511;28;20060;-67
2021/09/17 14:03:52;;;;;;;2.83;2.53;;;24.30;90.20;;;;;;11949954;28;20053;-68
2021/09/17 14:09:39;;;;;;;5.68;2.67;;;24.00;89.80;;;;;;11973626;28;20623;-67
2021/09/17 14:15:28;;;;;;;3.70;2.78;;;23.90;90.70;;;;;;11929789;28;20045;-67
2021/09/17 14:21:27;;;;;;;3.03;2.60;;;23.90;90.30;;;;;;11925155;28;20152;-68
2021/09/17 14:27:15;;;;;;;6.07;2.60;;;24.20;90.40;;;;;;11912646;28;20146;-68
2021/09/17 14:33:19;;;;;;;5.50;2.58;;;24.10;90.30;;;;;;11925134;28;20053;-69
2021/09/17 14:39:06;;;;;;;4.25;2.63;;;24.50;89.50;;;;;;11919757;28;20124;-68
2021/09/17 14:44:54;;;;;;;5.15;2.13;;;24.50;87.80;;;;;;11919432;28;20077;-68
2021/09/17 14:56:43;;;;;;;3.55;2.35;;;24.60;87.70;;;;;;11889955;28;20532;-68
2021/09/17 15:02:30;;;;;;;3.47;2.00;;;24.70;85.50;;;;;;11935463;28;20046;-67
2021/09/17 15:08:35;;;;;;;2.55;2.08;;;24.90;83.20;;;;;;11961483;28;20087;-67
2021/09/17 15:20:23;;;;;;;5.72;3.15;;;25.30;83.90;;;;;;11972852;28;20103;-66
2021/09/17 15:26:12;;;;;;;4.18;2.47;;;25.30;84.20;;;;;;11975382;28;21240;-65
2021/09/17 15:31:59;;;;;;;4.80;2.53;;;25.30;82.40;;;;;;11980750;28;20173;-66
2021/09/17 15:37:46;;;;;;;2.60;2.40;;;25.10;83.60;;;;;;11985159;28;20236;-67
2021/09/17 15:43:34;;;;;;;4.05;2.35;;;25.00;83.30;;;;;;11977818;28;20140;-66
2021/09/17 15:49:21;;;;;;;3.80;2.55;;;25.00;83.40;;;;;;11974383;28;20216;-66
2021/09/17 15:55:10;;;;;;;3.95;2.28;;;25.00;82.90;;;;;;11982103;28;21060;-66
2021/09/17 16:00:59;;;;;;;3.45;2.45;;;25.10;82.30;;;;;;11980433;28;20081;-66
2021/09/17 16:06:46;;;;;;;3.10;2.10;;;25.20;81.60;;;;;;11976687;28;20165;-67
2021/09/17 16:12:33;;;;;;;4.18;1.95;;;25.20;80.70;;;;;;11980316;28;20048;-66
2021/09/17 16:18:21;;;;;;;3.70;2.47;;;25.30;79.60;;;;;;11969991;28;22714;-65
2021/09/17 16:24:08;;;;;;;3.38;2.30;;;25.30;80.20;;;;;;11975622;28;20072;-66
2021/09/17 16:29:56;;;;;;;4.35;2.10;;;25.40;79.80;;;;;;11976881;28;20088;-66
2021/09/17 16:35:44;;;;;;;5.53;2.10;;;25.40;81.80;;;;;;11975047;28;20080;-68
2021/09/17 16:41:32;;;;;;;30.55;17.20;;;25.30;80.70;;;;;;11975480;28;20179;-66
2021/09/17 16:47:19;;;;;;;5.85;3.22;;;25.70;80.00;;;;;;11977500;28;20056;-67
2021/09/17 16:53:08;;;;;;;8.35;5.45;;;27.20;78.80;;;;;;11977517;28;20037;-66
2021/09/17 16:58:55;;;;;;;5.15;2.63;;;27.80;74.60;;;;;;11974253;28;20880;-66
2021/09/17 17:04:43;;;;;;;5.00;2.30;;;27.50;78.00;;;;;;11975865;28;20568;-66
2021/09/17 17:10:33;;;;;;;7.78;2.95;;;28.70;78.00;;;;;;11978881;28;20052;-66
2021/09/17 17:16:20;;;;;;;4.88;2.50;;;28.30;77.40;;;;;;11977322;28;20037;-66
2021/09/17 17:22:07;;;;;;;5.07;2.92;;;26.50;82.10;;;;;;11978429;28;20152;-67
2021/09/17 17:27:58;;;;;;;7.10;2.90;;;25.10;85.90;;;;;;11949666;28;20144;-67
2021/09/17 17:33:45;;;;;;;6.78;3.10;;;24.30;89.90;;;;;;11941564;28;20847;-66
2021/09/17 17:39:34;;;;;;;3.70;2.83;;;23.70;91.60;;;;;;11979676;28;20041;-66
2021/09/17 17:45:23;;;;;;;4.97;2.90;;;23.10;92.40;;;;;;11913785;28;20053;-66
2021/09/17 17:51:11;;;;;;;5.63;2.58;;;22.80;93.30;;;;;;11914364;28;20544;-66
2021/09/17 17:56:58;;;;;;;7.07;2.97;;;22.40;94.00;;;;;;11972782;28;20124;-68
2021/09/17 18:02:47;;;;;;;5.20;2.60;;;22.20;94.80;;;;;;11976063;28;20266;-66
2021/09/17 18:08:35;;;;;;;4.00;3.45;;;22.00;95.00;;;;;;11978038;28;20049;-66
2021/09/17 18:14:22;;;;;;;7.43;3.05;;;21.60;95.70;;;;;;11978844;28;20123;-65
2021/09/17 18:20:11;;;;;;;5.50;2.83;;;21.50;96.30;;;;;;11976854;28;20048;-68
2021/09/17 18:25:58;;;;;;;5.20;3.35;;;21.40;96.80;;;;;;11971678;28;20091;-66
2021/09/17 18:31:46;;;;;;;9.80;3.55;;;21.40;97.00;;;;;;11970021;28;20128;-66
2021/09/17 18:37:49;;;;;;;10.43;3.45;;;21.40;97.40;;;;;;11940850;28;20079;-67
2021/09/17 18:43:36;;;;;;;6.03;3.17;;;21.20;97.60;;;;;;11969271;28;20152;-67
2021/09/17 18:49:23;;;;;;;7.25;3.50;;;21.10;97.90;;;;;;11935709;28;20103;-67
2021/09/17 18:55:12;;;;;;;6.28;3.20;;;21.00;98.10;;;;;;11957706;28;20124;-66
2021/09/17 19:00:59;;;;;;;6.13;3.55;;;20.70;98.60;;;;;;11986746;28;20052;-67
2021/09/17 19:06:46;;;;;;;8.45;3.65;;;20.60;99.10;;;;;;11986445;28;20191;-66
2021/09/17 19:12:35;;;;;;;3.78;3.15;;;20.50;99.40;;;;;;11986148;28;20072;-66
2021/09/17 19:24:24;;;;;;;4.23;3.00;;;20.60;99.90;;;;;;11983405;28;20049;-65
2021/09/17 19:30:13;;;;;;;8.00;3.92;;;20.60;99.90;;;;;;11988513;28;20073;-66
2021/09/17 19:36:00;;;;;;;9.48;5.85;;;20.50;99.90;;;;;;11979303;28;20171;-67
2021/09/17 19:41:56;;;;;;;6.05;3.10;;;20.50;99.90;;;;;;11987672;28;20056;-67
2021/09/17 19:53:45;;;;;;;10.23;5.07;;;20.50;99.90;;;;;;11981446;28;20068;-67
2021/09/17 19:59:32;;;;;;;8.38;4.82;;;20.40;99.90;;;;;;11985022;28;20056;-66
2021/09/17 20:05:20;;;;;;;9.65;4.68;;;20.40;99.90;;;;;;11997803;28;20056;-66
